sensor_id;sensor_type;location;lat;lon;timestamp;temperature;humidity
60039;DHT22;45916;52.734;6.544;2023-10-31T00:02:14;11.80;99.90
60039;DHT22;45916;52.734;6.544;2023-10-31T00:04:40;11.80;99.90
60039;DHT22;45916;52.734;6.544;2023-10-31T00:07:05;11.80;99.90
60039;DHT22;45916;52.734;6.544;2023-10-31T00:09:31;11.80;99.90
60039;DHT22;45916;52.734;6.544;2023-10-31T00:11:58;11.80;99.90
60039;DHT22;45916;52.734;6.544;2023-10-31T00:14:23;11.80;99.90
60039;DHT22;45916;52.734;6.544;2023-10-31T00:16:49;11.90;99.90
60039;DHT22;45916;52.734;6.544;2023-10-31T00:19:15;11.80;99.90
60039;DHT22;45916;52.734;6.544;2023-10-31T00:21:40;11.80;99.90
60039;DHT22;45916;52.734;6.544;2023-10-31T00:24:06;11.80;99.90
60039;DHT22;45916;52.734;6.544;2023-10-31T00:26:32;11.80;99.90
60039;DHT22;45916;52.734;6.544;2023-10-31T00:28:58;11.80;99.90
60039;DHT22;45916;52.734;6.544;2023-10-31T00:31:23;11.90;99.90
60039;DHT22;45916;52.734;6.544;2023-10-31T00:33:49;11.90;99.90
60039;DHT22;45916;52.734;6.544;2023-10-31T00:36:15;11.80;99.90
60039;DHT22;45916;52.734;6.544;2023-10-31T00:38:40;11.80;99.90
60039;DHT22;45916;52.734;6.544;2023-10-31T00:41:06;11.90;99.90
60039;DHT22;45916;52.734;6.544;2023-10-31T00:43:32;11.90;99.90
60039;DHT22;45916;52.734;6.544;2023-10-31T00:45:57;11.90;99.90
60039;DHT22;45916;52.734;6.544;2023-10-31T00:48:23;11.90;99.90
60039;DHT22;45916;52.734;6.544;2023-10-31T00:50:49;12.00;99.90
60039;DHT22;45916;52.734;6.544;2023-10-31T00:53:14;12.00;99.90
60039;DHT22;45916;52.734;6.544;2023-10-31T00:55:42;11.90;99.90
60039;DHT22;45916;52.734;6.544;2023-10-31T00:58:07;11.90;99.90
60039;DHT22;45916;52.734;6.544;2023-10-31T01:00:33;11.90;99.90
60039;DHT22;45916;52.734;6.544;2023-10-31T01:02:59;11.90;99.90
60039;DHT22;45916;52.734;6.544;2023-10-31T01:05:25;11.80;99.90
60039;DHT22;45916;52.734;6.544;2023-10-31T01:07:53;11.70;99.90
60039;DHT22;45916;52.734;6.544;2023-10-31T01:10:19;11.70;99.90
60039;DHT22;45916;52.734;6.544;2023-10-31T01:12:45;11.70;99.90
60039;DHT22;45916;52.734;6.544;2023-10-31T01:15:11;11.70;99.90
60039;DHT22;45916;52.734;6.544;2023-10-31T01:17:36;11.60;99.90
60039;DHT22;45916;52.734;6.544;2023-10-31T01:20:02;11.60;99.90
60039;DHT22;45916;52.734;6.544;2023-10-31T01:22:28;11.50;99.90
60039;DHT22;45916;52.734;6.544;2023-10-31T01:24:54;11.50;99.90
60039;DHT22;45916;52.734;6.544;2023-10-31T01:27:20;11.40;99.90
60039;DHT22;45916;52.734;6.544;2023-10-31T01:29:45;11.30;99.90
60039;DHT22;45916;52.734;6.544;2023-10-31T01:32:11;11.30;99.90
60039;DHT22;45916;52.734;6.544;2023-10-31T01:34:37;11.10;99.90
60039;DHT22;45916;52.734;6.544;2023-10-31T01:37:03;11.10;99.90
60039;DHT22;45916;52.734;6.544;2023-10-31T01:39:28;11.10;99.90
60039;DHT22;45916;52.734;6.544;2023-10-31T01:41:54;11.00;99.90
60039;DHT22;45916;52.734;6.544;2023-10-31T01:44:20;11.00;99.90
60039;DHT22;45916;52.734;6.544;2023-10-31T01:46:46;11.00;99.90
60039;DHT22;45916;52.734;6.544;2023-10-31T01:49:13;10.90;99.90
60039;DHT22;45916;52.734;6.544;2023-10-31T01:51:40;10.90;99.90
60039;DHT22;45916;52.734;6.544;2023-10-31T01:54:07;10.90;99.90
60039;DHT22;45916;52.734;6.544;2023-10-31T01:56:34;10.90;99.90
60039;DHT22;45916;52.734;6.544;2023-10-31T01:59:00;10.80;99.90
60039;DHT22;45916;52.734;6.544;2023-10-31T02:01:26;10.70;99.90
60039;DHT22;45916;52.734;6.544;2023-10-31T02:03:51;10.80;99.90
60039;DHT22;45916;52.734;6.544;2023-10-31T02:06:19;10.80;99.90
60039;DHT22;45916;52.734;6.544;2023-10-31T02:08:47;10.70;99.90
60039;DHT22;45916;52.734;6.544;2023-10-31T02:11:13;10.70;99.90
60039;DHT22;45916;52.734;6.544;2023-10-31T02:13:38;10.70;99.90
60039;DHT22;45916;52.734;6.544;2023-10-31T02:16:04;10.70;99.90
60039;DHT22;45916;52.734;6.544;2023-10-31T02:18:30;10.80;99.90
60039;DHT22;45916;52.734;6.544;2023-10-31T02:20:56;10.80;99.90
60039;DHT22;45916;52.734;6.544;2023-10-31T02:23:21;10.80;99.90
60039;DHT22;45916;52.734;6.544;2023-10-31T02:25:47;10.80;99.90
60039;DHT22;45916;52.734;6.544;2023-10-31T02:28:13;10.80;99.90
60039;DHT22;45916;52.734;6.544;2023-10-31T02:30:38;10.70;99.90
60039;DHT22;45916;52.734;6.544;2023-10-31T02:33:04;10.70;99.90
60039;DHT22;45916;52.734;6.544;2023-10-31T02:35:29;10.70;99.90
60039;DHT22;45916;52.734;6.544;2023-10-31T02:37:55;10.70;99.90
60039;DHT22;45916;52.734;6.544;2023-10-31T02:40:21;10.70;99.90
60039;DHT22;45916;52.734;6.544;2023-10-31T02:42:47;10.80;99.90
60039;DHT22;45916;52.734;6.544;2023-10-31T02:45:13;10.70;99.90
60039;DHT22;45916;52.734;6.544;2023-10-31T02:47:39;10.80;99.90
60039;DHT22;45916;52.734;6.544;2023-10-31T02:50:05;10.80;99.90
60039;DHT22;45916;52.734;6.544;2023-10-31T02:52:31;10.90;99.90
60039;DHT22;45916;52.734;6.544;2023-10-31T02:54:57;10.80;99.90
60039;DHT22;45916;52.734;6.544;2023-10-31T02:57:22;10.90;99.90
60039;DHT22;45916;52.734;6.544;2023-10-31T02:59:48;10.80;99.90
60039;DHT22;45916;52.734;6.544;2023-10-31T03:02:14;10.80;99.90
60039;DHT22;45916;52.734;6.544;2023-10-31T03:04:39;10.80;99.90
60039;DHT22;45916;52.734;6.544;2023-10-31T03:07:05;10.90;99.90
60039;DHT22;45916;52.734;6.544;2023-10-31T03:09:31;10.90;99.90
60039;DHT22;45916;52.734;6.544;2023-10-31T03:11:56;10.90;99.90
60039;DHT22;45916;52.734;6.544;2023-10-31T03:14:22;10.90;99.90
60039;DHT22;45916;52.734;6.544;2023-10-31T03:16:47;10.90;99.90
60039;DHT22;45916;52.734;6.544;2023-10-31T03:19:13;10.90;99.90
60039;DHT22;45916;52.734;6.544;2023-10-31T03:21:39;10.90;99.90
60039;DHT22;45916;52.734;6.544;2023-10-31T03:24:05;10.90;99.90
60039;DHT22;45916;52.734;6.544;2023-10-31T03:26:30;10.90;99.90
60039;DHT22;45916;52.734;6.544;2023-10-31T03:28:56;10.90;99.90
60039;DHT22;45916;52.734;6.544;2023-10-31T03:31:24;10.90;99.90
60039;DHT22;45916;52.734;6.544;2023-10-31T03:33:50;10.90;99.90
60039;DHT22;45916;52.734;6.544;2023-10-31T03:36:17;10.90;99.90
60039;DHT22;45916;52.734;6.544;2023-10-31T03:38:43;11.00;99.90
60039;DHT22;45916;52.734;6.544;2023-10-31T03:41:09;10.90;99.90
60039;DHT22;45916;52.734;6.544;2023-10-31T03:43:34;10.90;99.90
60039;DHT22;45916;52.734;6.544;2023-10-31T03:46:00;11.00;99.90
60039;DHT22;45916;52.734;6.544;2023-10-31T03:48:26;10.90;99.90
60039;DHT22;45916;52.734;6.544;2023-10-31T03:50:52;11.00;99.90
60039;DHT22;45916;52.734;6.544;2023-10-31T03:53:18;11.00;99.90
60039;DHT22;45916;52.734;6.544;2023-10-31T03:55:44;11.00;99.90
60039;DHT22;45916;52.734;6.544;2023-10-31T03:58:10;11.00;99.90
60039;DHT22;45916;52.734;6.544;2023-10-31T04:00:36;11.00;99.90
60039;DHT22;45916;52.734;6.544;2023-10-31T04:03:01;11.00;99.90
60039;DHT22;45916;52.734;6.544;2023-10-31T04:05:27;11.00;99.90
60039;DHT22;45916;52.734;6.544;2023-10-31T04:07:53;11.00;99.90
60039;DHT22;45916;52.734;6.544;2023-10-31T04:10:19;11.00;99.90
60039;DHT22;45916;52.734;6.544;2023-10-31T04:12:45;11.00;99.90
60039;DHT22;45916;52.734;6.544;2023-10-31T04:15:11;11.00;99.90
60039;DHT22;45916;52.734;6.544;2023-10-31T04:17:37;11.00;99.90
60039;DHT22;45916;52.734;6.544;2023-10-31T04:20:03;10.90;99.90
60039;DHT22;45916;52.734;6.544;2023-10-31T04:22:29;10.90;99.90
60039;DHT22;45916;52.734;6.544;2023-10-31T04:24:55;10.90;99.90
60039;DHT22;45916;52.734;6.544;2023-10-31T04:27:21;10.90;99.90
60039;DHT22;45916;52.734;6.544;2023-10-31T04:29:47;10.90;99.90
60039;DHT22;45916;52.734;6.544;2023-10-31T04:32:13;11.00;99.90
60039;DHT22;45916;52.734;6.544;2023-10-31T04:34:39;11.00;99.90
60039;DHT22;45916;52.734;6.544;2023-10-31T04:37:04;11.00;99.90
60039;DHT22;45916;52.734;6.544;2023-10-31T04:39:30;11.00;99.90
60039;DHT22;45916;52.734;6.544;2023-10-31T04:41:56;10.90;99.90
60039;DHT22;45916;52.734;6.544;2023-10-31T04:44:22;11.00;99.90
60039;DHT22;45916;52.734;6.544;2023-10-31T04:46:48;10.90;99.90
60039;DHT22;45916;52.734;6.544;2023-10-31T04:49:13;10.90;99.90
60039;DHT22;45916;52.734;6.544;2023-10-31T04:51:40;10.90;99.90
60039;DHT22;45916;52.734;6.544;2023-10-31T04:54:06;10.90;99.90
60039;DHT22;45916;52.734;6.544;2023-10-31T04:56:33;10.90;99.90
60039;DHT22;45916;52.734;6.544;2023-10-31T04:58:58;10.90;99.90
60039;DHT22;45916;52.734;6.544;2023-10-31T05:01:24;10.90;99.90
60039;DHT22;45916;52.734;6.544;2023-10-31T05:03:50;10.90;99.90
60039;DHT22;45916;52.734;6.544;2023-10-31T05:06:22;10.80;99.90
60039;DHT22;45916;52.734;6.544;2023-10-31T05:08:49;10.80;99.90
60039;DHT22;45916;52.734;6.544;2023-10-31T05:11:18;10.80;99.90
60039;DHT22;45916;52.734;6.544;2023-10-31T05:13:47;10.90;99.90
60039;DHT22;45916;52.734;6.544;2023-10-31T05:16:13;10.80;99.90
60039;DHT22;45916;52.734;6.544;2023-10-31T05:18:39;10.90;99.90
60039;DHT22;45916;52.734;6.544;2023-10-31T05:21:05;10.90;99.90
60039;DHT22;45916;52.734;6.544;2023-10-31T05:23:31;10.80;99.90
60039;DHT22;45916;52.734;6.544;2023-10-31T05:25:57;10.80;99.90
60039;DHT22;45916;52.734;6.544;2023-10-31T05:28:22;10.80;99.90
60039;DHT22;45916;52.734;6.544;2023-10-31T05:30:49;10.80;99.90
60039;DHT22;45916;52.734;6.544;2023-10-31T05:33:15;10.90;99.90
60039;DHT22;45916;52.734;6.544;2023-10-31T05:35:41;10.80;99.90
60039;DHT22;45916;52.734;6.544;2023-10-31T05:38:07;10.80;99.90
60039;DHT22;45916;52.734;6.544;2023-10-31T05:40:32;10.80;99.90
60039;DHT22;45916;52.734;6.544;2023-10-31T05:43:01;10.90;99.90
60039;DHT22;45916;52.734;6.544;2023-10-31T05:45:28;10.80;99.90
60039;DHT22;45916;52.734;6.544;2023-10-31T05:47:54;10.80;99.90
60039;DHT22;45916;52.734;6.544;2023-10-31T05:50:19;10.80;99.90
60039;DHT22;45916;52.734;6.544;2023-10-31T05:52:45;10.90;99.90
60039;DHT22;45916;52.734;6.544;2023-10-31T05:55:11;10.90;99.90
60039;DHT22;45916;52.734;6.544;2023-10-31T05:57:36;10.80;99.90
60039;DHT22;45916;52.734;6.544;2023-10-31T06:00:02;10.90;99.90
60039;DHT22;45916;52.734;6.544;2023-10-31T06:02:28;10.90;99.90
60039;DHT22;45916;52.734;6.544;2023-10-31T06:04:55;10.90;99.90
60039;DHT22;45916;52.734;6.544;2023-10-31T06:07:21;10.80;99.90
60039;DHT22;45916;52.734;6.544;2023-10-31T06:09:46;10.80;99.90
60039;DHT22;45916;52.734;6.544;2023-10-31T06:12:12;10.80;99.90
60039;DHT22;45916;52.734;6.544;2023-10-31T06:14:38;10.80;99.90
60039;DHT22;45916;52.734;6.544;2023-10-31T06:17:03;10.80;99.90
60039;DHT22;45916;52.734;6.544;2023-10-31T06:19:32;10.70;99.90
60039;DHT22;45916;52.734;6.544;2023-10-31T06:21:58;10.80;99.90
60039;DHT22;45916;52.734;6.544;2023-10-31T06:24:24;10.80;99.90
60039;DHT22;45916;52.734;6.544;2023-10-31T06:26:49;10.80;99.90
60039;DHT22;45916;52.734;6.544;2023-10-31T06:29:15;10.70;99.90
60039;DHT22;45916;52.734;6.544;2023-10-31T06:31:41;10.70;99.90
60039;DHT22;45916;52.734;6.544;2023-10-31T06:34:06;10.70;99.90
60039;DHT22;45916;52.734;6.544;2023-10-31T06:36:32;10.70;99.90
60039;DHT22;45916;52.734;6.544;2023-10-31T06:38:57;10.70;99.90
60039;DHT22;45916;52.734;6.544;2023-10-31T06:41:24;10.70;99.90
60039;DHT22;45916;52.734;6.544;2023-10-31T06:43:49;10.70;99.90
60039;DHT22;45916;52.734;6.544;2023-10-31T06:46:15;10.70;99.90
60039;DHT22;45916;52.734;6.544;2023-10-31T06:48:41;10.70;99.90
60039;DHT22;45916;52.734;6.544;2023-10-31T06:51:08;10.70;99.90
60039;DHT22;45916;52.734;6.544;2023-10-31T06:53:34;10.80;99.90
60039;DHT22;45916;52.734;6.544;2023-10-31T06:56:00;10.80;99.90
60039;DHT22;45916;52.734;6.544;2023-10-31T06:58:25;10.80;99.90
60039;DHT22;45916;52.734;6.544;2023-10-31T07:00:51;10.80;99.90
60039;DHT22;45916;52.734;6.544;2023-10-31T07:03:17;10.80;99.90
60039;DHT22;45916;52.734;6.544;2023-10-31T07:05:43;10.80;99.90
60039;DHT22;45916;52.734;6.544;2023-10-31T07:08:09;10.90;99.90
60039;DHT22;45916;52.734;6.544;2023-10-31T07:10:34;10.90;99.90
60039;DHT22;45916;52.734;6.544;2023-10-31T07:13:00;10.90;99.90
60039;DHT22;45916;52.734;6.544;2023-10-31T07:15:26;10.90;99.90
60039;DHT22;45916;52.734;6.544;2023-10-31T07:17:52;10.90;99.90
60039;DHT22;45916;52.734;6.544;2023-10-31T07:20:17;10.90;99.90
60039;DHT22;45916;52.734;6.544;2023-10-31T07:22:43;11.00;99.90
60039;DHT22;45916;52.734;6.544;2023-10-31T07:25:09;11.00;99.90
60039;DHT22;45916;52.734;6.544;2023-10-31T07:27:35;11.00;99.90
60039;DHT22;45916;52.734;6.544;2023-10-31T07:30:04;11.10;99.90
60039;DHT22;45916;52.734;6.544;2023-10-31T07:32:31;11.10;99.90
60039;DHT22;45916;52.734;6.544;2023-10-31T07:34:57;11.10;99.90
60039;DHT22;45916;52.734;6.544;2023-10-31T07:37:23;11.20;99.90
60039;DHT22;45916;52.734;6.544;2023-10-31T07:39:48;11.20;99.90
60039;DHT22;45916;52.734;6.544;2023-10-31T07:42:16;11.20;99.90
60039;DHT22;45916;52.734;6.544;2023-10-31T07:44:41;11.20;99.90
60039;DHT22;45916;52.734;6.544;2023-10-31T07:47:07;11.30;99.90
60039;DHT22;45916;52.734;6.544;2023-10-31T07:49:33;11.40;99.90
60039;DHT22;45916;52.734;6.544;2023-10-31T07:51:59;11.50;99.90
60039;DHT22;45916;52.734;6.544;2023-10-31T07:54:24;11.50;99.90
60039;DHT22;45916;52.734;6.544;2023-10-31T07:56:50;11.60;99.90
60039;DHT22;45916;52.734;6.544;2023-10-31T07:59:16;11.70;99.90
60039;DHT22;45916;52.734;6.544;2023-10-31T08:01:42;11.80;99.90
60039;DHT22;45916;52.734;6.544;2023-10-31T08:04:07;11.90;99.90
60039;DHT22;45916;52.734;6.544;2023-10-31T08:06:33;12.00;99.90
60039;DHT22;45916;52.734;6.544;2023-10-31T08:08:59;12.10;99.90
60039;DHT22;45916;52.734;6.544;2023-10-31T08:11:25;12.20;99.90
60039;DHT22;45916;52.734;6.544;2023-10-31T08:13:50;12.20;99.90
60039;DHT22;45916;52.734;6.544;2023-10-31T08:16:19;12.30;99.90
60039;DHT22;45916;52.734;6.544;2023-10-31T08:18:45;12.40;99.90
60039;DHT22;45916;52.734;6.544;2023-10-31T08:21:12;12.50;99.90
60039;DHT22;45916;52.734;6.544;2023-10-31T08:23:38;12.70;99.90
60039;DHT22;45916;52.734;6.544;2023-10-31T08:26:03;13.00;99.90
60039;DHT22;45916;52.734;6.544;2023-10-31T08:28:29;13.80;99.90
60039;DHT22;45916;52.734;6.544;2023-10-31T08:30:56;15.20;99.90
60039;DHT22;45916;52.734;6.544;2023-10-31T08:33:22;16.90;99.90
60039;DHT22;45916;52.734;6.544;2023-10-31T08:35:48;18.30;99.90
60039;DHT22;45916;52.734;6.544;2023-10-31T08:38:14;19.10;99.90
60039;DHT22;45916;52.734;6.544;2023-10-31T08:40:41;19.20;99.90
60039;DHT22;45916;52.734;6.544;2023-10-31T08:43:06;20.00;99.90
60039;DHT22;45916;52.734;6.544;2023-10-31T08:45:33;21.00;99.90
60039;DHT22;45916;52.734;6.544;2023-10-31T08:47:59;20.80;99.90
60039;DHT22;45916;52.734;6.544;2023-10-31T08:50:25;20.30;99.90
60039;DHT22;45916;52.734;6.544;2023-10-31T08:52:51;19.90;99.90
60039;DHT22;45916;52.734;6.544;2023-10-31T08:55:17;20.60;99.90
60039;DHT22;45916;52.734;6.544;2023-10-31T08:57:42;20.60;99.90
60039;DHT22;45916;52.734;6.544;2023-10-31T09:00:08;20.40;99.90
60039;DHT22;45916;52.734;6.544;2023-10-31T09:02:34;20.30;99.90
60039;DHT22;45916;52.734;6.544;2023-10-31T09:05:00;20.00;99.90
60039;DHT22;45916;52.734;6.544;2023-10-31T09:07:25;19.30;99.90
60039;DHT22;45916;52.734;6.544;2023-10-31T09:09:51;18.60;99.90
60039;DHT22;45916;52.734;6.544;2023-10-31T09:12:17;18.90;99.90
60039;DHT22;45916;52.734;6.544;2023-10-31T09:14:42;18.40;99.90
60039;DHT22;45916;52.734;6.544;2023-10-31T09:17:08;17.90;99.90
60039;DHT22;45916;52.734;6.544;2023-10-31T09:19:34;18.00;99.90
60039;DHT22;45916;52.734;6.544;2023-10-31T09:21:59;17.50;99.90
60039;DHT22;45916;52.734;6.544;2023-10-31T09:24:25;17.20;99.90
60039;DHT22;45916;52.734;6.544;2023-10-31T09:26:51;16.90;99.90
60039;DHT22;45916;52.734;6.544;2023-10-31T09:29:16;16.70;99.90
60039;DHT22;45916;52.734;6.544;2023-10-31T09:31:42;16.80;99.90
60039;DHT22;45916;52.734;6.544;2023-10-31T09:34:08;17.40;99.90
60039;DHT22;45916;52.734;6.544;2023-10-31T09:36:34;17.50;99.90
60039;DHT22;45916;52.734;6.544;2023-10-31T09:39:00;17.50;99.90
60039;DHT22;45916;52.734;6.544;2023-10-31T09:41:26;17.30;99.90
60039;DHT22;45916;52.734;6.544;2023-10-31T09:43:53;17.10;99.90
60039;DHT22;45916;52.734;6.544;2023-10-31T09:46:19;17.40;99.90
60039;DHT22;45916;52.734;6.544;2023-10-31T09:48:45;17.00;99.90
60039;DHT22;45916;52.734;6.544;2023-10-31T09:51:11;16.90;99.90
60039;DHT22;45916;52.734;6.544;2023-10-31T09:53:38;16.80;99.90
60039;DHT22;45916;52.734;6.544;2023-10-31T09:56:07;17.60;99.90
60039;DHT22;45916;52.734;6.544;2023-10-31T09:58:33;18.40;99.90
60039;DHT22;45916;52.734;6.544;2023-10-31T10:00:59;19.80;99.90
60039;DHT22;45916;52.734;6.544;2023-10-31T10:03:26;20.50;99.90
60039;DHT22;45916;52.734;6.544;2023-10-31T10:05:52;20.30;99.90
60039;DHT22;45916;52.734;6.544;2023-10-31T10:08:19;19.60;99.90
60039;DHT22;45916;52.734;6.544;2023-10-31T10:10:45;18.50;99.90
60039;DHT22;45916;52.734;6.544;2023-10-31T10:13:11;17.70;99.90
60039;DHT22;45916;52.734;6.544;2023-10-31T10:15:48;16.90;99.90
60039;DHT22;45916;52.734;6.544;2023-10-31T10:18:34;16.20;99.90
60039;DHT22;45916;52.734;6.544;2023-10-31T10:21:02;15.60;99.90
60039;DHT22;45916;52.734;6.544;2023-10-31T10:23:29;15.00;99.90
60039;DHT22;45916;52.734;6.544;2023-10-31T10:25:56;14.60;99.90
60039;DHT22;45916;52.734;6.544;2023-10-31T10:28:22;14.30;99.90
60039;DHT22;45916;52.734;6.544;2023-10-31T10:30:51;14.00;99.90
60039;DHT22;45916;52.734;6.544;2023-10-31T10:33:17;13.80;99.90
60039;DHT22;45916;52.734;6.544;2023-10-31T10:35:44;13.70;99.90
60039;DHT22;45916;52.734;6.544;2023-10-31T10:38:11;13.60;99.90
60039;DHT22;45916;52.734;6.544;2023-10-31T10:40:45;13.70;99.90
60039;DHT22;45916;52.734;6.544;2023-10-31T10:43:24;13.70;99.90
60039;DHT22;45916;52.734;6.544;2023-10-31T10:45:54;13.80;99.90
60039;DHT22;45916;52.734;6.544;2023-10-31T10:48:26;13.90;99.90
60039;DHT22;45916;52.734;6.544;2023-10-31T10:51:10;14.20;99.90
60039;DHT22;45916;52.734;6.544;2023-10-31T10:54:08;14.60;99.90
60039;DHT22;45916;52.734;6.544;2023-10-31T10:56:38;14.90;99.90
60039;DHT22;45916;52.734;6.544;2023-10-31T10:59:12;15.20;99.90
60039;DHT22;45916;52.734;6.544;2023-10-31T11:01:41;15.50;99.90
60039;DHT22;45916;52.734;6.544;2023-10-31T11:04:07;15.60;99.90
60039;DHT22;45916;52.734;6.544;2023-10-31T11:06:34;15.40;99.90
60039;DHT22;45916;52.734;6.544;2023-10-31T11:09:02;15.30;99.90
60039;DHT22;45916;52.734;6.544;2023-10-31T11:11:28;15.10;99.90
60039;DHT22;45916;52.734;6.544;2023-10-31T11:13:55;14.80;99.90
60039;DHT22;45916;52.734;6.544;2023-10-31T11:16:51;14.50;99.90
60039;DHT22;45916;52.734;6.544;2023-10-31T11:19:18;14.30;99.90
60039;DHT22;45916;52.734;6.544;2023-10-31T11:22:01;14.10;99.90
60039;DHT22;45916;52.734;6.544;2023-10-31T11:24:36;14.00;99.90
60039;DHT22;45916;52.734;6.544;2023-10-31T11:27:03;13.90;99.90
60039;DHT22;45916;52.734;6.544;2023-10-31T11:29:33;13.80;99.90
60039;DHT22;45916;52.734;6.544;2023-10-31T11:31:59;13.80;99.90
60039;DHT22;45916;52.734;6.544;2023-10-31T11:34:29;13.80;99.90
60039;DHT22;45916;52.734;6.544;2023-10-31T11:37:24;13.90;99.90
60039;DHT22;45916;52.734;6.544;2023-10-31T11:42:41;13.90;99.90
60039;DHT22;45916;52.734;6.544;2023-10-31T11:45:10;13.90;99.90
60039;DHT22;45916;52.734;6.544;2023-10-31T11:50:11;14.10;99.90
60039;DHT22;45916;52.734;6.544;2023-10-31T11:52:38;14.50;99.90
60039;DHT22;45916;52.734;6.544;2023-10-31T11:55:04;15.00;99.90
60039;DHT22;45916;52.734;6.544;2023-10-31T11:57:30;15.30;99.90
60039;DHT22;45916;52.734;6.544;2023-10-31T11:59:56;15.20;99.90
60039;DHT22;45916;52.734;6.544;2023-10-31T12:02:22;15.20;99.90
60039;DHT22;45916;52.734;6.544;2023-10-31T12:04:47;15.20;99.90
60039;DHT22;45916;52.734;6.544;2023-10-31T12:07:13;15.20;99.90
60039;DHT22;45916;52.734;6.544;2023-10-31T12:09:48;15.30;99.90
60039;DHT22;45916;52.734;6.544;2023-10-31T12:12:14;15.50;99.90
60039;DHT22;45916;52.734;6.544;2023-10-31T12:14:40;15.60;99.90
60039;DHT22;45916;52.734;6.544;2023-10-31T12:17:06;15.50;99.90
60039;DHT22;45916;52.734;6.544;2023-10-31T12:19:33;15.30;99.90
60039;DHT22;45916;52.734;6.544;2023-10-31T12:21:58;15.10;99.90
60039;DHT22;45916;52.734;6.544;2023-10-31T12:24:24;14.90;99.90
60039;DHT22;45916;52.734;6.544;2023-10-31T12:26:50;14.80;99.90
60039;DHT22;45916;52.734;6.544;2023-10-31T12:29:18;15.00;99.90
60039;DHT22;45916;52.734;6.544;2023-10-31T12:31:48;15.10;99.90
60039;DHT22;45916;52.734;6.544;2023-10-31T12:34:18;15.20;99.90
60039;DHT22;45916;52.734;6.544;2023-10-31T12:36:49;15.10;99.90
60039;DHT22;45916;52.734;6.544;2023-10-31T12:39:17;14.90;99.90
60039;DHT22;45916;52.734;6.544;2023-10-31T12:41:44;14.80;99.90
60039;DHT22;45916;52.734;6.544;2023-10-31T12:44:10;14.70;99.90
60039;DHT22;45916;52.734;6.544;2023-10-31T12:46:41;14.60;99.90
60039;DHT22;45916;52.734;6.544;2023-10-31T12:49:19;14.40;99.90
60039;DHT22;45916;52.734;6.544;2023-10-31T12:51:57;14.10;99.90
60039;DHT22;45916;52.734;6.544;2023-10-31T12:54:33;13.90;99.90
60039;DHT22;45916;52.734;6.544;2023-10-31T12:57:06;13.70;99.90
60039;DHT22;45916;52.734;6.544;2023-10-31T12:59:33;13.60;99.90
60039;DHT22;45916;52.734;6.544;2023-10-31T13:02:00;13.50;99.90
60039;DHT22;45916;52.734;6.544;2023-10-31T13:04:30;13.50;99.90
60039;DHT22;45916;52.734;6.544;2023-10-31T13:06:57;13.70;99.90
60039;DHT22;45916;52.734;6.544;2023-10-31T13:09:22;14.00;99.90
60039;DHT22;45916;52.734;6.544;2023-10-31T13:11:48;14.30;99.90
60039;DHT22;45916;52.734;6.544;2023-10-31T13:14:14;14.60;99.90
60039;DHT22;45916;52.734;6.544;2023-10-31T13:16:40;14.90;99.90
60039;DHT22;45916;52.734;6.544;2023-10-31T13:19:05;15.20;99.90
60039;DHT22;45916;52.734;6.544;2023-10-31T13:21:31;15.50;99.90
60039;DHT22;45916;52.734;6.544;2023-10-31T13:23:57;15.70;99.90
60039;DHT22;45916;52.734;6.544;2023-10-31T13:26:22;15.80;99.90
60039;DHT22;45916;52.734;6.544;2023-10-31T13:28:48;15.60;99.90
60039;DHT22;45916;52.734;6.544;2023-10-31T13:31:14;15.30;99.90
60039;DHT22;45916;52.734;6.544;2023-10-31T13:33:40;15.10;99.90
60039;DHT22;45916;52.734;6.544;2023-10-31T13:36:05;14.80;99.90
60039;DHT22;45916;52.734;6.544;2023-10-31T13:38:31;14.70;99.90
60039;DHT22;45916;52.734;6.544;2023-10-31T13:40:57;14.60;99.90
60039;DHT22;45916;52.734;6.544;2023-10-31T13:43:23;14.40;99.90
60039;DHT22;45916;52.734;6.544;2023-10-31T13:45:49;14.30;99.90
60039;DHT22;45916;52.734;6.544;2023-10-31T13:48:15;14.20;99.90
60039;DHT22;45916;52.734;6.544;2023-10-31T13:50:40;14.20;99.90
60039;DHT22;45916;52.734;6.544;2023-10-31T13:53:07;14.10;99.90
60039;DHT22;45916;52.734;6.544;2023-10-31T13:55:33;14.00;99.90
60039;DHT22;45916;52.734;6.544;2023-10-31T13:57:58;13.80;99.90
60039;DHT22;45916;52.734;6.544;2023-10-31T14:00:24;13.60;99.90
60039;DHT22;45916;52.734;6.544;2023-10-31T14:02:50;13.40;99.90
60039;DHT22;45916;52.734;6.544;2023-10-31T14:05:15;13.30;99.90
60039;DHT22;45916;52.734;6.544;2023-10-31T14:07:41;13.20;99.90
60039;DHT22;45916;52.734;6.544;2023-10-31T14:10:07;13.10;99.90
60039;DHT22;45916;52.734;6.544;2023-10-31T14:12:33;13.00;99.90
60039;DHT22;45916;52.734;6.544;2023-10-31T14:14:59;13.00;99.90
60039;DHT22;45916;52.734;6.544;2023-10-31T14:17:24;13.00;99.90
60039;DHT22;45916;52.734;6.544;2023-10-31T14:19:50;13.00;99.90
60039;DHT22;45916;52.734;6.544;2023-10-31T14:22:16;13.00;99.90
60039;DHT22;45916;52.734;6.544;2023-10-31T14:24:41;12.90;99.90
60039;DHT22;45916;52.734;6.544;2023-10-31T14:27:07;12.90;99.90
60039;DHT22;45916;52.734;6.544;2023-10-31T14:29:33;12.80;99.90
60039;DHT22;45916;52.734;6.544;2023-10-31T14:32:08;12.80;99.90
60039;DHT22;45916;52.734;6.544;2023-10-31T14:34:34;12.70;99.90
60039;DHT22;45916;52.734;6.544;2023-10-31T14:37:00;12.60;99.90
60039;DHT22;45916;52.734;6.544;2023-10-31T14:39:26;12.60;99.90
60039;DHT22;45916;52.734;6.544;2023-10-31T14:41:51;12.50;99.90
60039;DHT22;45916;52.734;6.544;2023-10-31T14:44:17;12.40;99.90
60039;DHT22;45916;52.734;6.544;2023-10-31T14:46:44;12.40;99.90
60039;DHT22;45916;52.734;6.544;2023-10-31T14:49:09;12.30;99.90
60039;DHT22;45916;52.734;6.544;2023-10-31T14:51:36;12.20;99.90
60039;DHT22;45916;52.734;6.544;2023-10-31T14:54:02;12.10;99.90
60039;DHT22;45916;52.734;6.544;2023-10-31T14:56:27;12.00;99.90
60039;DHT22;45916;52.734;6.544;2023-10-31T14:58:55;11.90;99.90
60039;DHT22;45916;52.734;6.544;2023-10-31T15:01:21;11.80;99.90
60039;DHT22;45916;52.734;6.544;2023-10-31T15:03:46;11.70;99.90
60039;DHT22;45916;52.734;6.544;2023-10-31T15:06:12;11.60;99.90
60039;DHT22;45916;52.734;6.544;2023-10-31T15:08:38;11.50;99.90
60039;DHT22;45916;52.734;6.544;2023-10-31T15:11:04;11.40;99.90
60039;DHT22;45916;52.734;6.544;2023-10-31T15:13:29;11.30;99.90
60039;DHT22;45916;52.734;6.544;2023-10-31T15:15:56;11.20;99.90
60039;DHT22;45916;52.734;6.544;2023-10-31T15:18:22;11.10;99.90
60039;DHT22;45916;52.734;6.544;2023-10-31T15:20:47;11.00;99.90
60039;DHT22;45916;52.734;6.544;2023-10-31T15:23:13;10.90;99.90
60039;DHT22;45916;52.734;6.544;2023-10-31T15:25:40;10.90;99.90
60039;DHT22;45916;52.734;6.544;2023-10-31T15:28:06;10.80;99.90
60039;DHT22;45916;52.734;6.544;2023-10-31T15:30:32;10.80;99.90
60039;DHT22;45916;52.734;6.544;2023-10-31T15:32:58;10.70;99.90